Time;durP1;ratioP1;P1;durP2;ratioP2;P2;SDS_P1;SDS_P2;PMS_P1;PMS_P2;Temp;Humidity;BMP_temperature;BMP_pressure;BME280_temperature;BME280_humidity;BME280_pressure;Samples;Min_cycle;Max_cycle;Signal;HPM_P1;HPM_P2
2023/08/05 04:22:34;;;;;;;7.65;4.75;;;;;;;13.20;100.00;100215.16;5109788;27;20117;-67
2023/08/05 04:25:00;;;;;;;8.20;5.15;;;;;;;13.26;100.00;100223.28;5109785;28;20036;-67
2023/08/05 04:27:26;;;;;;;8.35;5.40;;;;;;;13.28;100.00;100226.56;5109911;28;20028;-67
2023/08/05 04:29:51;;;;;;;8.38;5.50;;;;;;;13.32;100.00;100228.88;5109428;28;20032;-67
2023/08/05 04:32:16;;;;;;;8.38;4.75;;;;;;;13.29;100.00;100235.44;5109951;28;20386;-67
2023/08/05 04:34:44;;;;;;;9.70;5.18;;;;;;;13.32;100.00;100236.91;5109622;28;20040;-67
2023/08/05 04:37:21;;;;;;;7.72;5.15;;;;;;;13.30;100.00;100232.59;5109465;28;20044;-67
2023/08/05 04:39:46;;;;;;;10.57;5.53;;;;;;;13.34;100.00;100235.69;5109379;28;20042;-67
2023/08/05 04:42:12;;;;;;;10.85;7.70;;;;;;;13.33;100.00;100239.38;5109421;28;20031;-67
2023/08/05 04:44:40;;;;;;;9.50;5.38;;;;;;;13.35;100.00;100245.38;5109395;28;20482;-67
2023/08/05 04:47:06;;;;;;;;;;;;;;;13.38;100.00;100236.16;5109816;28;20032;-67
2023/08/05 04:49:31;;;;;;;10.65;5.35;;;;;;;13.38;100.00;100231.63;5109079;28;19993;-67
2023/08/05 04:51:57;;;;;;;7.85;4.75;;;;;;;13.42;100.00;100238.22;5109323;28;20663;-67
2023/08/05 04:54:23;;;;;;;7.97;5.22;;;;;;;13.39;100.00;100235.94;5109314;28;20085;-67
2023/08/05 04:56:48;;;;;;;10.30;4.63;;;;;;;13.41;100.00;100228.56;5108977;28;20135;-66
2023/08/05 04:59:13;;;;;;;7.20;5.32;;;;;;;13.40;100.00;100236.78;5108902;28;20484;-67
2023/08/05 05:01:39;;;;;;;10.15;5.60;;;;;;;13.41;100.00;100233.06;5109015;28;20089;-67
2023/08/05 05:04:04;;;;;;;9.73;5.22;;;;;;;13.46;100.00;100236.00;5109079;28;20093;-67
2023/08/05 05:06:29;;;;;;;7.70;5.30;;;;;;;13.46;100.00;100230.66;5108992;28;20076;-67
2023/08/05 05:08:55;;;;;;;9.52;4.90;;;;;;;13.48;100.00;100220.59;5108776;28;20053;-67
2023/08/05 05:11:20;;;;;;;7.85;5.50;;;;;;;13.49;100.00;100214.19;5108860;28;20048;-66
2023/08/05 05:13:50;;;;;;;8.25;4.60;;;;;;;13.55;100.00;100218.78;5108869;28;20129;-67
2023/08/05 05:16:17;;;;;;;10.77;5.28;;;;;;;13.58;100.00;100226.44;5108798;28;20070;-67
2023/08/05 05:18:42;;;;;;;9.05;5.32;;;;;;;13.61;100.00;100231.41;5108519;28;20036;-67
2023/08/05 05:21:08;;;;;;;10.15;5.95;;;;;;;13.62;100.00;100229.53;5108601;28;20131;-67
2023/08/05 05:23:33;;;;;;;8.15;5.72;;;;;;;13.64;100.00;100231.03;5108678;28;20044;-68
2023/08/05 05:25:59;;;;;;;7.68;4.60;;;;;;;13.75;100.00;100227.81;5108522;28;20075;-67
2023/08/05 05:28:24;;;;;;;6.90;5.00;;;;;;;13.83;100.00;100222.31;5108371;28;20078;-67
2023/08/05 05:30:49;;;;;;;8.50;5.45;;;;;;;13.89;100.00;100218.03;5108436;28;20036;-66
2023/08/05 05:33:15;;;;;;;9.07;4.75;;;;;;;13.97;100.00;100222.41;5098579;28;20044;-66
2023/08/05 05:35:40;;;;;;;6.97;4.70;;;;;;;14.00;100.00;100219.34;5094856;28;20406;-67
2023/08/05 05:38:05;;;;;;;9.18;5.28;;;;;;;14.04;100.00;100225.97;5094614;28;20032;-66
2023/08/05 05:40:31;;;;;;;9.63;4.90;;;;;;;14.06;100.00;100224.72;5094797;28;20483;-66
2023/08/05 05:42:56;;;;;;;7.72;4.57;;;;;;;14.13;100.00;100216.72;5094637;28;20040;-66
2023/08/05 05:45:22;;;;;;;6.32;4.70;;;;;;;14.19;100.00;100215.94;5094654;28;20097;-66
2023/08/05 05:47:47;;;;;;;6.78;4.97;;;;;;;14.28;100.00;100227.31;5094680;28;20043;-66
2023/08/05 05:50:12;;;;;;;7.38;4.70;;;;;;;14.35;100.00;100226.34;5094272;28;20444;-66
2023/08/05 05:52:38;;;;;;;8.00;5.22;;;;;;;14.45;100.00;100227.84;5094575;28;20032;-66
2023/08/05 05:55:04;;;;;;;7.22;4.38;;;;;;;14.52;100.00;100220.69;5094541;28;20030;-66
2023/08/05 05:57:29;;;;;;;7.97;4.80;;;;;;;14.56;100.00;100220.09;5094275;28;20090;-66
2023/08/05 05:59:56;;;;;;;7.32;4.32;;;;;;;14.59;100.00;100226.91;5094156;28;20035;-66
2023/08/05 06:02:22;;;;;;;9.10;4.82;;;;;;;14.63;100.00;100220.13;5094341;28;20490;-67
2023/08/05 06:04:47;;;;;;;8.02;4.90;;;;;;;14.64;100.00;100221.78;5094267;28;20119;-66
2023/08/05 06:07:13;;;;;;;10.63;5.10;;;;;;;14.71;100.00;100221.78;5094308;28;20556;-63
2023/08/05 06:09:38;;;;;;;7.15;5.00;;;;;;;14.74;100.00;100211.50;5094101;28;20397;-65
2023/08/05 06:12:04;;;;;;;8.93;4.78;;;;;;;14.77;100.00;100216.47;5094118;28;20508;-66
2023/08/05 06:14:30;;;;;;;7.53;4.57;;;;;;;14.81;100.00;100215.03;5094484;28;20044;-64
2023/08/05 06:16:55;;;;;;;8.27;4.97;;;;;;;14.86;100.00;100217.09;5094122;28;20044;-65
2023/08/05 06:19:21;;;;;;;9.02;4.85;;;;;;;14.92;100.00;100222.47;5093776;28;20044;-65
2023/08/05 06:21:47;;;;;;;7.53;4.85;;;;;;;14.96;100.00;100211.34;5094149;28;20048;-64
2023/08/05 06:24:12;;;;;;;8.30;4.95;;;;;;;14.98;100.00;100212.78;5094005;28;20036;-64
2023/08/05 06:26:38;;;;;;;9.07;5.05;;;;;;;14.99;100.00;100205.56;5093902;28;20093;-65
2023/08/05 06:29:03;;;;;;;8.15;5.03;;;;;;;15.07;100.00;100208.09;5093639;28;20028;-65
2023/08/05 06:31:28;;;;;;;7.53;4.75;;;;;;;15.14;100.00;100207.06;5093780;28;20040;-65
2023/08/05 06:33:54;;;;;;;9.75;5.07;;;;;;;15.22;100.00;100207.91;5093722;28;20385;-66
2023/08/05 06:36:19;;;;;;;10.48;5.03;;;;;;;15.27;100.00;100210.81;5093749;28;20028;-66
2023/08/05 06:38:45;;;;;;;7.50;4.72;;;;;;;15.34;100.00;100211.63;5093484;28;20039;-66
2023/08/05 06:41:10;;;;;;;7.90;5.43;;;;;;;15.38;100.00;100215.53;5093672;28;20044;-66
2023/08/05 06:43:35;;;;;;;7.55;5.00;;;;;;;15.45;100.00;100195.75;5093084;28;20089;-65
2023/08/05 06:46:01;;;;;;;10.48;4.50;;;;;;;15.52;100.00;100189.53;5092894;28;20040;-66
2023/08/05 06:48:26;;;;;;;9.75;5.03;;;;;;;15.61;100.00;100201.72;5091982;28;20403;-65
2023/08/05 06:50:51;;;;;;;8.05;4.45;;;;;;;15.65;100.00;100186.91;5093436;28;20039;-64
2023/08/05 06:53:17;;;;;;;9.02;4.63;;;;;;;15.70;100.00;100192.44;5093464;28;20036;-66
2023/08/05 06:55:43;;;;;;;7.95;4.75;;;;;;;15.73;100.00;100181.31;5093269;28;20081;-65
2023/08/05 06:58:08;;;;;;;7.35;4.25;;;;;;;15.78;100.00;100186.88;5093093;28;20032;-66
2023/08/05 07:00:33;;;;;;;8.80;4.65;;;;;;;15.86;100.00;100178.59;5093323;28;20460;-64
2023/08/05 07:03:01;;;;;;;7.32;4.93;;;;;;;15.92;100.00;100176.94;5093146;28;20095;-65
2023/08/05 07:05:26;;;;;;;8.90;4.93;;;;;;;15.95;100.00;100168.47;5093243;28;20032;-64
2023/08/05 07:07:52;;;;;;;8.20;5.43;;;;;;;16.04;100.00;100177.97;5092999;28;20168;-65
2023/08/05 07:10:17;;;;;;;9.20;4.70;;;;;;;16.09;100.00;100177.31;5092920;28;20040;-65
2023/08/05 07:12:42;;;;;;;8.23;4.85;;;;;;;16.13;100.00;100183.91;5093046;28;20032;-65
2023/08/05 07:15:08;;;;;;;9.25;5.22;;;;;;;16.22;100.00;100186.16;5092995;28;20069;-65
2023/08/05 07:17:35;;;;;;;9.15;5.25;;;;;;;16.36;100.00;100186.94;5092841;28;20407;-65
2023/08/05 07:20:00;;;;;;;8.05;5.20;;;;;;;16.41;100.00;100184.44;5091189;28;20040;-67
2023/08/05 07:22:26;;;;;;;7.80;5.60;;;;;;;16.54;100.00;100187.06;5092769;28;20054;-62
2023/08/05 07:24:54;;;;;;;7.63;5.00;;;;;;;16.67;100.00;100178.13;5092779;28;20040;-63
2023/08/05 07:27:20;;;;;;;7.97;4.82;;;;;;;16.75;100.00;100171.69;5092693;28;20051;-62
2023/08/05 07:29:45;;;;;;;9.98;5.15;;;;;;;16.73;100.00;100171.09;5092378;28;20482;-63
2023/08/05 07:32:11;;;;;;;9.52;5.30;;;;;;;16.70;100.00;100176.91;5092231;28;20512;-63
2023/08/05 07:34:36;;;;;;;7.60;5.03;;;;;;;16.69;100.00;100181.44;5092729;28;20475;-63
2023/08/05 07:37:02;;;;;;;10.77;5.00;;;;;;;16.67;100.00;100170.06;5092443;28;20040;-63
2023/08/05 07:39:33;;;;;;;9.38;4.85;;;;;;;16.69;100.00;100169.81;5092144;28;20056;-63
2023/08/05 07:42:03;;;;;;;11.02;5.55;;;;;;;16.85;100.00;100172.06;5092384;28;20036;-63
2023/08/05 07:44:31;;;;;;;10.32;4.88;;;;;;;17.07;100.00;100173.34;5092397;28;20046;-63
2023/08/05 07:46:57;;;;;;;9.65;5.10;;;;;;;17.31;100.00;100176.31;5092196;28;20044;-62
2023/08/05 07:49:23;;;;;;;11.33;5.60;;;;;;;17.36;100.00;100169.22;5092141;28;20044;-61
2023/08/05 07:51:50;;;;;;;6.82;4.90;;;;;;;17.36;100.00;100160.34;5092047;28;20040;-63
2023/08/05 07:54:16;;;;;;;10.48;5.45;;;;;;;17.46;100.00;100163.34;5092155;28;20046;-63
2023/08/05 07:56:42;;;;;;;9.00;5.28;;;;;;;17.41;100.00;100171.28;5090880;28;20137;-63
2023/08/05 07:59:07;;;;;;;9.15;5.40;;;;;;;17.34;100.00;100168.63;5091894;28;20036;-62
2023/08/05 08:01:34;;;;;;;7.00;4.63;;;;;;;17.30;100.00;100166.59;5092189;28;20039;-62
2023/08/05 08:04:02;;;;;;;8.27;4.82;;;;;;;17.43;100.00;100166.47;5092104;28;20447;-63
2023/08/05 08:06:28;;;;;;;9.02;4.97;;;;;;;17.62;100.00;100153.88;5090680;28;20040;-62
2023/08/05 08:08:53;;;;;;;11.63;5.63;;;;;;;17.71;100.00;100155.28;5092124;28;20042;-63
2023/08/05 08:11:19;;;;;;;8.85;5.65;;;;;;;17.81;100.00;100154.78;5092000;28;20390;-62
2023/08/05 08:13:45;;;;;;;9.20;5.82;;;;;;;17.95;100.00;100144.69;5092014;28;20093;-63
2023/08/05 08:16:10;;;;;;;9.40;5.65;;;;;;;18.05;100.00;100151.19;5091943;28;20035;-62
2023/08/05 08:18:36;;;;;;;8.43;5.38;;;;;;;17.98;100.00;100153.13;5091793;28;20551;-62
2023/08/05 08:21:02;;;;;;;11.18;6.15;;;;;;;18.03;100.00;100155.16;5091803;28;20040;-62
2023/08/05 08:23:27;;;;;;;8.55;5.63;;;;;;;18.13;100.00;100159.00;5091969;28;20418;-63
2023/08/05 08:25:56;;;;;;;9.60;5.80;;;;;;;18.35;100.00;100159.34;5091903;28;20111;-63
2023/08/05 08:28:21;;;;;;;8.38;5.82;;;;;;;18.52;100.00;100153.31;5091509;28;20047;-62
2023/08/05 08:30:55;;;;;;;12.07;6.30;;;;;;;18.46;100.00;100140.78;5091759;28;20044;-63
2023/08/05 08:33:21;;;;;;;8.50;5.75;;;;;;;18.26;100.00;100141.84;5091871;28;20046;-63
2023/08/05 08:35:48;;;;;;;11.05;6.03;;;;;;;18.24;100.00;100135.84;5091868;28;20036;-63
2023/08/05 08:38:14;;;;;;;13.63;5.60;;;;;;;18.33;100.00;100136.38;5091544;28;20040;-62
2023/08/05 08:40:47;;;;;;;9.38;5.30;;;;;;;18.49;97.22;100133.03;5091789;28;20394;-63
2023/08/05 08:43:20;;;;;;;9.45;5.90;;;;;;;18.61;100.00;100136.59;5091753;28;20040;-62
2023/08/05 08:45:49;;;;;;;9.25;5.75;;;;;;;18.74;96.85;100124.84;5091657;28;20035;-61
2023/08/05 08:48:16;;;;;;;7.75;5.38;;;;;;;18.78;94.29;100135.97;5091460;28;20063;-62
2023/08/05 08:50:43;;;;;;;7.30;5.00;;;;;;;18.91;93.55;100130.41;5091593;28;20036;-61
2023/08/05 08:53:12;;;;;;;11.73;6.07;;;;;;;19.02;95.29;100129.59;5091649;28;20047;-60
2023/08/05 08:55:37;;;;;;;8.65;5.20;;;;;;;18.93;94.37;100131.00;5091745;28;20510;-63
2023/08/05 08:58:03;;;;;;;10.65;6.35;;;;;;;18.83;96.16;100128.03;5091513;28;20115;-64
2023/08/05 09:00:30;;;;;;;10.50;6.88;;;;;;;19.02;93.90;100120.69;5091519;28;20044;-63
2023/08/05 09:02:59;;;;;;;9.10;5.85;;;;;;;19.18;97.15;100120.03;5091694;28;20047;-64
2023/08/05 09:05:25;;;;;;;14.60;6.53;;;;;;;19.26;93.81;100116.97;5091500;28;20097;-62
2023/08/05 09:07:50;;;;;;;10.23;5.97;;;;;;;19.28;91.07;100111.34;5092973;28;20044;-62
2023/08/05 09:10:16;;;;;;;10.63;5.63;;;;;;;19.38;92.76;100111.59;5095269;28;20046;-62
2023/08/05 09:12:42;;;;;;;11.20;5.63;;;;;;;19.27;93.14;100107.00;5095339;28;20044;-63
2023/08/05 09:15:08;;;;;;;11.05;6.35;;;;;;;19.45;89.17;100112.28;5094982;28;20072;-64
2023/08/05 09:17:38;;;;;;;11.38;6.30;;;;;;;19.66;88.55;100108.22;5095313;28;20067;-63
2023/08/05 09:20:12;;;;;;;11.98;6.57;;;;;;;19.85;88.01;100100.78;5095057;28;20042;-62
2023/08/05 09:22:37;;;;;;;8.82;5.88;;;;;;;20.03;85.78;100114.97;5095216;28;20070;-64
2023/08/05 09:25:03;;;;;;;9.90;6.00;;;;;;;20.26;84.42;100114.09;5095245;28;20399;-63
2023/08/05 09:27:45;;;;;;;8.68;6.25;;;;;;;20.49;87.42;100118.63;5095065;28;20070;-62
2023/08/05 09:30:15;;;;;;;7.88;5.15;;;;;;;20.62;82.17;100120.22;5094701;28;20040;-62
2023/08/05 09:32:43;;;;;;;8.95;5.35;;;;;;;20.77;80.55;100112.38;5092334;28;20135;-63
2023/08/05 09:35:10;;;;;;;8.80;5.53;;;;;;;21.02;78.38;100106.59;5094643;28;20024;-62
2023/08/05 09:37:38;;;;;;;8.40;5.68;;;;;;;21.14;78.88;100101.09;5094895;28;20127;-63
2023/08/05 09:40:14;;;;;;;9.75;5.85;;;;;;;21.21;75.92;100100.94;5076392;28;20711;-61
2023/08/05 09:42:41;;;;;;;7.45;4.88;;;;;;;21.30;72.80;100094.88;5093943;28;20032;-64
2023/08/05 09:45:09;;;;;;;7.93;5.15;;;;;;;21.48;76.86;100090.28;5090585;28;20047;-63
2023/08/05 09:47:36;;;;;;;11.05;5.68;;;;;;;21.72;74.45;100099.84;5094145;28;20383;-62
2023/08/05 09:50:04;;;;;;;8.10;5.93;;;;;;;21.48;81.02;100095.69;5094249;28;20036;-64
2023/08/05 09:52:33;;;;;;;9.10;6.18;;;;;;;21.71;77.29;100090.06;5094619;28;20036;-64
2023/08/05 09:55:09;;;;;;;7.78;5.47;;;;;;;21.83;73.56;100077.22;5094347;28;20032;-63
2023/08/05 09:57:36;;;;;;;8.07;5.00;;;;;;;22.16;78.30;100086.31;5094733;28;20040;-63
2023/08/05 10:00:07;;;;;;;8.38;5.00;;;;;;;22.33;71.47;100076.22;5094211;28;20038;-62
2023/08/05 10:02:33;;;;;;;6.97;4.55;;;;;;;22.53;72.44;100072.91;5094603;28;20043;-63
2023/08/05 10:05:00;;;;;;;8.60;4.97;;;;;;;22.90;70.83;100078.44;5094294;28;20043;-62
2023/08/05 10:07:27;;;;;;;12.57;5.20;;;;;;;22.94;68.80;100076.03;5094196;28;20416;-62
2023/08/05 10:09:53;;;;;;;7.53;4.70;;;;;;;22.74;67.83;100068.47;5094166;28;20482;-62
2023/08/05 10:12:32;;;;;;;6.13;4.53;;;;;;;22.52;70.58;100063.13;5094181;28;20040;-63
2023/08/05 10:14:59;;;;;;;7.85;4.80;;;;;;;23.23;66.19;100054.81;5093941;28;20547;-62
2023/08/05 10:17:25;;;;;;;6.72;4.82;;;;;;;23.40;66.70;100062.78;5094151;28;20650;-62
2023/08/05 10:19:51;;;;;;;9.98;4.00;;;;;;;23.66;60.22;100040.13;5093724;28;20487;-62
2023/08/05 10:22:24;;;;;;;9.48;4.30;;;;;;;24.06;60.18;100050.38;5093837;28;20046;-63
2023/08/05 10:24:52;;;;;;;9.52;4.68;;;;;;;24.42;61.48;100042.31;5094236;28;20477;-62
2023/08/05 10:27:33;;;;;;;8.35;4.43;;;;;;;24.69;61.90;100035.81;5093893;28;20074;-63
2023/08/05 10:30:07;;;;;;;4.78;3.65;;;;;;;24.89;56.08;100033.91;5093616;28;20397;-62
2023/08/05 10:32:35;;;;;;;5.50;3.10;;;;;;;24.61;54.47;100045.34;5093742;28;20036;-62
2023/08/05 10:35:39;;;;;;;5.13;3.90;;;;;;;24.73;51.76;100031.47;5093252;28;20527;-62
2023/08/05 10:38:07;;;;;;;7.70;3.22;;;;;;;25.13;51.43;100020.59;5093544;28;20075;-62
2023/08/05 10:40:39;;;;;;;4.97;3.10;;;;;;;25.37;51.87;100026.28;5093692;28;20035;-62
2023/08/05 10:43:05;;;;;;;4.70;3.88;;;;;;;25.49;53.62;100017.78;5093549;28;20040;-62
2023/08/05 10:45:33;;;;;;;4.70;3.25;;;;;;;24.76;49.69;100020.84;5093347;28;20127;-64
2023/08/05 10:47:59;;;;;;;7.10;3.50;;;;;;;25.08;51.72;100014.31;5092858;28;20032;-63
2023/08/05 10:50:33;;;;;;;5.38;3.17;;;;;;;25.65;55.96;100015.81;5091546;28;20040;-63
2023/08/05 10:53:03;;;;;;;4.60;3.45;;;;;;;26.03;50.86;100000.69;5092133;28;20067;-64
2023/08/05 10:55:29;;;;;;;5.50;3.33;;;;;;;25.89;54.30;100003.22;5093051;28;20074;-64
2023/08/05 10:57:54;;;;;;;3.78;3.05;;;;;;;24.94;53.77;99996.88;5091291;28;20056;-64
2023/08/05 11:00:21;;;;;;;5.38;3.53;;;;;;;25.21;55.38;99996.59;5093430;28;20044;-63
2023/08/05 11:02:49;;;;;;;3.72;3.03;;;;;;;25.70;51.44;99994.00;5093292;28;20032;-63
2023/08/05 11:05:15;;;;;;;4.85;2.75;;;;;;;26.17;50.00;99984.50;5093163;28;20039;-64
2023/08/05 11:07:42;;;;;;;6.63;2.75;;;;;;;26.52;49.79;99989.72;5093243;28;20086;-64
2023/08/05 11:10:09;;;;;;;3.97;2.75;;;;;;;26.44;48.17;99990.34;5092857;28;20105;-64
2023/08/05 11:12:38;;;;;;;3.33;2.90;;;;;;;26.36;46.48;99984.66;5093013;28;20123;-63
2023/08/05 11:15:04;;;;;;;3.70;3.17;;;;;;;26.74;47.25;99980.28;5093126;28;20095;-62
2023/08/05 11:17:29;;;;;;;4.32;3.10;;;;;;;26.72;46.59;99993.41;5092857;28;20043;-61
2023/08/05 11:19:57;;;;;;;4.82;2.80;;;;;;;27.01;48.35;99982.50;5092824;28;20032;-59
2023/08/05 11:22:30;;;;;;;4.07;3.17;;;;;;;27.59;47.36;99983.25;5092955;28;20367;-59
2023/08/05 11:25:03;;;;;;;6.50;4.03;;;;;;;27.05;46.46;99989.84;5093127;28;20032;-54
2023/08/05 11:27:43;;;;;;;3.42;2.58;;;;;;;26.72;46.17;99983.28;5092824;28;20402;-62
2023/08/05 11:30:15;;;;;;;3.97;2.67;;;;;;;26.53;46.34;99968.69;5092012;28;20032;-59
2023/08/05 11:32:55;;;;;;;3.35;2.65;;;;;;;26.53;47.47;99968.69;5092604;28;20075;-57
2023/08/05 11:35:20;;;;;;;5.72;2.75;;;;;;;27.08;47.41;99972.06;5092990;28;20032;-58
2023/08/05 11:37:46;;;;;;;5.88;2.83;;;;;;;27.82;44.94;99967.91;5092786;28;20510;-53
2023/08/05 11:40:12;;;;;;;2.58;2.33;;;;;;;28.22;44.39;99960.22;5092454;28;20467;-56
2023/08/05 11:42:39;;;;;;;3.88;2.50;;;;;;;28.32;44.48;99956.56;5092767;28;20028;-65
2023/08/05 11:45:04;;;;;;;;;;;;;;;28.16;41.03;99938.69;5093050;28;20109;-63
2023/08/05 11:47:30;;;;;;;3.83;2.33;;;;;;;27.61;41.55;99938.38;5092469;28;20372;-63
2023/08/05 11:49:55;;;;;;;3.85;2.30;;;;;;;27.82;43.15;99937.81;5092293;28;20447;-63
2023/08/05 11:52:21;;;;;;;4.88;2.70;;;;;;;28.30;44.96;99940.41;5092440;28;20521;-63
2023/08/05 11:55:06;;;;;;;3.95;3.10;;;;;;;28.26;45.25;99936.63;5092352;28;20039;-63
2023/08/05 11:57:32;;;;;;;4.10;2.28;;;;;;;28.51;42.82;99920.94;5092410;28;20032;-64
2023/08/05 12:00:09;;;;;;;2.88;2.08;;;;;;;28.31;46.22;99925.63;5091983;28;20074;-64
2023/08/05 12:02:34;;;;;;;4.80;2.33;;;;;;;28.35;40.10;99925.84;5092308;28;20036;-64
2023/08/05 12:05:01;;;;;;;2.85;2.33;;;;;;;29.30;43.46;99920.84;5092541;28;20040;-63
2023/08/05 12:07:27;;;;;;;4.60;2.70;;;;;;;29.39;39.65;99929.97;5092138;28;20074;-64
2023/08/05 12:10:12;;;;;;;3.77;2.37;;;;;;;28.79;42.02;99908.91;5092035;28;20040;-64
2023/08/05 12:12:42;;;;;;;4.25;2.17;;;;;;;28.80;41.01;99902.31;5092003;28;20028;-64
2023/08/05 12:15:20;;;;;;;4.13;2.40;;;;;;;29.35;40.79;99896.88;5092177;28;20032;-63
2023/08/05 12:17:48;;;;;;;3.80;2.47;;;;;;;29.43;40.85;99896.16;5080616;28;20063;-64
2023/08/05 12:20:21;;;;;;;3.40;2.15;;;;;;;29.92;39.58;99897.28;5081206;28;20444;-63
2023/08/05 12:22:47;;;;;;;3.15;1.90;;;;;;;29.36;39.80;99893.00;5080623;28;20025;-64
2023/08/05 12:25:13;;;;;;;2.70;2.03;;;;;;;29.43;39.37;99882.44;5065378;28;20500;-69
2023/08/05 12:27:40;;;;;;;3.17;1.83;;;;;;;30.17;37.48;99876.66;5048641;28;20591;-64
2023/08/05 12:30:07;;;;;;;2.08;1.77;;;;;;;30.21;38.79;99874.13;5080425;28;20052;-65
2023/08/05 12:32:35;;;;;;;;;;;;;;;29.73;36.56;99874.66;5083689;28;20119;-65
2023/08/05 12:35:04;;;;;;;1.95;1.60;;;;;;;29.36;35.90;99851.06;5080413;28;19916;-63
2023/08/05 12:37:30;;;;;;;2.70;1.80;;;;;;;29.37;35.79;99867.22;5080109;28;20658;-62
2023/08/05 12:39:55;;;;;;;3.58;1.75;;;;;;;29.53;38.34;99861.41;5081516;28;20111;-64
2023/08/05 12:42:21;;;;;;;3.17;1.77;;;;;;;29.28;38.47;99852.59;5082529;28;20028;-64
2023/08/05 12:44:47;;;;;;;4.47;2.50;;;;;;;29.35;35.77;99846.69;5066538;28;20445;-63
2023/08/05 12:47:12;;;;;;;3.63;1.90;;;;;;;29.61;37.94;99852.47;5086112;28;20032;-64
2023/08/05 12:49:39;;;;;;;4.43;1.85;;;;;;;29.99;37.83;99851.00;5085223;28;20024;-64
2023/08/05 12:52:05;;;;;;;2.25;1.70;;;;;;;30.16;36.93;99838.53;5084322;28;20074;-64
2023/08/05 12:54:31;;;;;;;2.70;1.90;;;;;;;30.26;35.16;99846.53;5084682;28;20039;-64
2023/08/05 12:56:56;;;;;;;3.07;2.30;;;;;;;29.79;34.60;99839.69;5085353;28;20035;-64
2023/08/05 12:59:22;;;;;;;3.80;2.25;;;;;;;29.27;36.43;99831.75;5085604;28;20041;-64
2023/08/05 13:01:47;;;;;;;4.35;1.98;;;;;;;29.71;38.42;99833.00;5086438;28;20507;-64
2023/08/05 13:04:12;;;;;;;1.95;1.63;;;;;;;29.53;37.05;99829.28;5084284;28;20055;-64
2023/08/05 13:06:38;;;;;;;3.13;2.00;;;;;;;30.13;36.78;99828.19;5084674;28;20040;-64
2023/08/05 13:09:04;;;;;;;2.78;1.70;;;;;;;29.87;36.46;99819.75;5088509;28;20036;-64
2023/08/05 13:11:29;;;;;;;2.55;1.60;;;;;;;29.51;37.55;99815.09;5095310;28;20040;-65
2023/08/05 13:13:54;;;;;;;3.95;1.73;;;;;;;29.59;38.09;99817.09;5095333;28;20036;-64
2023/08/05 13:16:20;;;;;;;2.78;1.77;;;;;;;29.53;37.23;99821.06;5095305;28;20040;-64
2023/08/05 13:18:45;;;;;;;4.13;1.77;;;;;;;29.08;36.86;99814.63;5088052;28;20044;-64
2023/08/05 13:21:11;;;;;;;4.07;1.80;;;;;;;29.14;37.50;99807.91;5074711;28;20032;-63
2023/08/05 13:23:37;;;;;;;3.55;2.20;;;;;;;29.39;39.42;99792.84;5074998;28;20166;-63
2023/08/05 13:26:02;;;;;;;2.22;2.00;;;;;;;29.89;40.13;99796.34;5074809;28;20036;-64
2023/08/05 13:28:28;;;;;;;4.65;3.40;;;;;;;30.12;39.73;99782.63;5075155;28;20066;-64
2023/08/05 13:31:00;;;;;;;4.27;3.07;;;;;;;29.61;39.06;99801.16;5074723;28;20047;-64
2023/08/05 13:33:26;;;;;;;3.30;2.00;;;;;;;29.91;38.86;99794.09;5075055;28;20495;-63
2023/08/05 13:35:51;;;;;;;3.60;2.00;;;;;;;29.34;38.22;99779.22;5074580;28;20071;-64
2023/08/05 13:38:17;;;;;;;2.53;1.95;;;;;;;28.29;40.73;99771.72;5074364;28;20115;-64
2023/08/05 13:40:42;;;;;;;3.35;2.20;;;;;;;27.31;44.32;99768.09;5074458;28;20556;-64
2023/08/05 13:43:07;;;;;;;2.90;2.20;;;;;;;27.15;45.36;99769.44;5074569;28;20047;-63
2023/08/05 13:45:33;;;;;;;3.05;2.33;;;;;;;26.85;46.48;99765.97;5074468;28;20035;-64
2023/08/05 13:47:59;;;;;;;2.60;2.30;;;;;;;26.50;47.69;99757.09;5074267;28;20410;-64
2023/08/05 13:50:25;;;;;;;3.42;2.25;;;;;;;26.41;45.96;99758.03;5074259;28;20040;-65
2023/08/05 13:52:50;;;;;;;2.33;1.80;;;;;;;26.22;43.47;99747.81;5074140;28;20046;-65
2023/08/05 13:55:16;;;;;;;2.80;1.90;;;;;;;25.84;44.14;99752.25;5073932;28;20483;-64
2023/08/05 13:57:41;;;;;;;3.65;2.05;;;;;;;25.53;44.65;99742.66;5074381;28;20127;-64
2023/08/05 14:00:07;;;;;;;3.67;1.92;;;;;;;25.36;45.76;99745.75;5074028;28;20060;-65
2023/08/05 14:02:37;;;;;;;4.38;2.08;;;;;;;25.57;48.65;99746.47;5074249;28;20037;-63
2023/08/05 14:05:03;;;;;;;2.88;2.17;;;;;;;25.60;47.05;99735.78;5074403;28;20062;-64
2023/08/05 14:07:29;;;;;;;2.70;2.10;;;;;;;25.48;48.33;99738.06;5074155;28;20036;-64
2023/08/05 14:09:54;;;;;;;2.67;2.13;;;;;;;25.25;48.45;99736.84;5073785;28;20029;-64
2023/08/05 14:12:19;;;;;;;2.80;2.20;;;;;;;25.26;49.18;99730.31;5074014;28;20044;-64
2023/08/05 14:14:45;;;;;;;3.42;2.17;;;;;;;25.13;49.43;99736.38;5074021;28;20060;-64
2023/08/05 14:17:10;;;;;;;3.95;1.90;;;;;;;24.77;49.08;99728.34;5073921;28;20040;-64
2023/08/05 14:19:35;;;;;;;3.60;2.70;;;;;;;24.69;49.95;99726.22;5073612;28;20054;-64
2023/08/05 14:22:01;;;;;;;4.22;2.35;;;;;;;24.43;49.38;99724.69;5073957;28;20040;-64
2023/08/05 14:24:26;;;;;;;3.47;2.30;;;;;;;24.35;50.05;99734.22;5073851;28;20115;-64
2023/08/05 14:26:51;;;;;;;3.58;2.58;;;;;;;24.31;51.30;99735.84;5073778;28;20040;-60
2023/08/05 14:29:17;;;;;;;3.85;2.53;;;;;;;24.24;48.60;99725.25;5073492;28;20066;-59
2023/08/05 14:31:42;;;;;;;3.88;2.33;;;;;;;24.25;49.10;99724.13;5073638;28;20067;-58
2023/08/05 14:34:08;;;;;;;5.22;2.78;;;;;;;24.43;51.32;99733.66;5073596;28;20046;-60
2023/08/05 14:36:33;;;;;;;4.40;2.78;;;;;;;24.45;51.31;99733.38;5073482;28;20286;-60
2023/08/05 14:38:58;;;;;;;4.28;2.50;;;;;;;24.42;50.78;99726.59;5073210;28;20041;-58
2023/08/05 14:41:24;;;;;;;5.68;2.60;;;;;;;24.27;51.59;99715.72;5073493;28;20090;-61
2023/08/05 14:43:49;;;;;;;3.83;2.30;;;;;;;24.15;48.89;99717.94;5073385;28;20062;-59
2023/08/05 14:46:15;;;;;;;3.60;2.58;;;;;;;23.93;50.93;99721.78;5073275;28;20041;-63
2023/08/05 14:48:40;;;;;;;3.78;2.50;;;;;;;23.63;52.19;99716.34;5073004;28;20487;-60
2023/08/05 14:51:06;;;;;;;3.97;2.78;;;;;;;23.38;52.62;99708.97;5073234;28;20040;-59
2023/08/05 14:53:31;;;;;;;3.17;2.53;;;;;;;23.51;51.35;99708.44;5073247;28;20058;-57
2023/08/05 14:56:00;;;;;;;9.75;3.22;;;;;;;23.44;55.15;99711.41;5073180;28;20506;-59
2023/08/05 14:58:26;;;;;;;3.35;2.30;;;;;;;23.31;52.52;99705.69;5072890;28;20036;-60
2023/08/05 15:00:52;;;;;;;6.32;3.22;;;;;;;23.32;52.71;99699.16;5073028;28;20106;-58
2023/08/05 15:03:17;;;;;;;5.03;2.90;;;;;;;23.33;54.64;99690.75;5072944;28;20044;-60
2023/08/05 15:05:43;;;;;;;3.47;2.78;;;;;;;23.24;55.32;99695.91;5071989;28;20036;-64
2023/08/05 15:08:08;;;;;;;3.00;2.20;;;;;;;22.91;50.61;99697.19;5072589;28;20037;-61
2023/08/05 15:10:34;;;;;;;4.75;3.08;;;;;;;22.77;49.97;99693.31;5072948;28;20139;-61
2023/08/05 15:12:59;;;;;;;4.15;2.70;;;;;;;22.63;50.37;99690.31;5072823;28;20123;-62
2023/08/05 15:15:24;;;;;;;3.53;2.15;;;;;;;22.42;51.75;99685.84;5072732;28;20067;-61
2023/08/05 15:17:50;;;;;;;3.83;2.22;;;;;;;22.33;51.04;99682.03;5072473;28;20052;-61
2023/08/05 15:20:15;;;;;;;4.22;2.17;;;;;;;22.33;51.84;99688.25;5072422;28;20032;-56
2023/08/05 15:22:41;;;;;;;5.28;2.22;;;;;;;22.24;50.58;99679.00;5072678;28;20107;-59
2023/08/05 15:25:06;;;;;;;4.45;1.98;;;;;;;22.22;51.33;99681.13;5072614;28;20028;-65
2023/08/05 15:27:32;;;;;;;2.95;1.80;;;;;;;22.23;53.56;99680.06;5072646;28;20109;-64
2023/08/05 15:29:58;;;;;;;3.00;2.00;;;;;;;22.11;51.81;99677.56;5072246;28;20037;-64
2023/08/05 15:32:24;;;;;;;2.83;1.88;;;;;;;22.25;51.84;99675.19;5072485;28;20411;-64
2023/08/05 15:34:50;;;;;;;3.00;1.95;;;;;;;22.33;53.09;99668.44;5072527;28;20036;-64
2023/08/05 15:37:15;;;;;;;2.70;2.05;;;;;;;22.47;52.33;99664.97;5072349;28;20043;-64
2023/08/05 15:39:41;;;;;;;4.85;1.85;;;;;;;22.51;50.76;99665.28;5072199;28;20491;-62
2023/08/05 15:42:06;;;;;;;2.97;1.65;;;;;;;22.68;51.16;99665.06;5072374;28;20041;-64
2023/08/05 15:44:35;;;;;;;2.42;1.95;;;;;;;22.62;50.83;99666.13;5072308;28;20036;-62